createdAt,value
2018-08-17T00:09:26.004Z,23.9
2018-08-17T00:19:25.255Z,23.9
2018-08-17T00:29:24.487Z,23.8
2018-08-17T00:39:23.729Z,23.8
2018-08-17T00:49:22.971Z,23.7
2018-08-17T00:59:22.216Z,23.7
2018-08-17T01:09:21.459Z,23.6
2018-08-17T01:19:20.706Z,23.5
2018-08-17T01:29:19.942Z,23.4
2018-08-17T01:39:19.184Z,23.4
2018-08-17T01:49:18.428Z,23.3
2018-08-17T01:59:17.670Z,23.3
2018-08-17T02:09:16.914Z,23.3
2018-08-17T02:19:16.155Z,23.3
2018-08-17T02:29:15.396Z,23.3
2018-08-17T02:39:14.640Z,23.3
2018-08-17T02:49:13.883Z,23.2
2018-08-17T02:59:13.126Z,23.2
2018-08-17T03:09:12.372Z,23.2
2018-08-17T03:19:11.612Z,23.2
2018-08-17T03:29:10.856Z,23.1
2018-08-17T03:39:10.101Z,23.1
2018-08-17T03:49:09.346Z,23.1
2018-08-17T03:59:08.590Z,23.1
2018-08-17T04:09:07.834Z,23.1
2018-08-17T04:19:07.079Z,23.1
2018-08-17T04:29:06.323Z,23.2
2018-08-17T04:39:05.569Z,23.2
2018-08-17T04:49:04.812Z,23.3
2018-08-17T04:59:04.059Z,23.3
2018-08-17T05:09:03.338Z,23.3
2018-08-17T05:19:02.543Z,23.3
2018-08-17T05:29:01.793Z,23.3
2018-08-17T05:39:01.031Z,23.4
2018-08-17T05:49:00.278Z,23.5
2018-08-17T05:58:59.516Z,23.7
2018-08-17T06:08:58.760Z,23.9
2018-08-17T06:18:58.004Z,24.1
2018-08-17T06:28:57.246Z,24.4
2018-08-17T06:38:56.490Z,24.8
2018-08-17T06:48:55.731Z,25
2018-08-17T06:58:54.974Z,25.2
2018-08-17T07:08:54.357Z,25.6
2018-08-17T07:18:53.465Z,26
2018-08-17T07:28:52.704Z,26.2
2018-08-17T07:38:51.952Z,26.6
2018-08-17T07:48:51.195Z,26.7
2018-08-17T07:58:50.443Z,26.8
2018-08-17T08:08:49.678Z,26.9
2018-08-17T08:18:48.920Z,27
2018-08-17T08:28:48.164Z,27
2018-08-17T08:38:47.466Z,27.3
2018-08-17T08:48:46.650Z,27.4
2018-08-17T08:58:45.893Z,27.5
2018-08-17T09:08:45.138Z,27.4
2018-08-17T09:18:44.380Z,27.6
2018-08-17T09:28:43.625Z,27.8
2018-08-17T09:38:42.872Z,27.6
2018-08-17T09:48:42.120Z,27.7
2018-08-17T09:58:41.359Z,28
2018-08-17T10:08:40.604Z,28
2018-08-17T10:18:39.858Z,28.2
2018-08-17T10:28:39.094Z,28.1
2018-08-17T10:38:38.346Z,28.1
2018-08-17T10:48:37.590Z,27.9
2018-08-17T10:58:36.830Z,27.9
2018-08-17T11:08:36.074Z,28.1
2018-08-17T11:18:35.317Z,27.6
2018-08-17T11:28:34.562Z,25.9
2018-08-17T11:38:33.809Z,25.9
2018-08-17T11:48:33.049Z,26
2018-08-17T11:58:32.305Z,26.1
2018-08-17T12:08:31.589Z,26.2
2018-08-17T12:18:30.779Z,26.2
2018-08-17T12:28:30.023Z,26.2
2018-08-17T12:38:29.274Z,26.3
2018-08-17T12:48:28.509Z,26.2
2018-08-17T12:58:27.760Z,26.7
2018-08-17T13:08:27.001Z,26.6
2018-08-17T13:18:26.248Z,26.6
2018-08-17T13:28:25.488Z,25.4
2018-08-17T13:38:24.732Z,24.9
2018-08-17T13:48:23.977Z,24.8
2018-08-17T13:58:23.223Z,25.2
2018-08-17T14:08:22.487Z,24.6
2018-08-17T14:18:21.709Z,25.2
2018-08-17T14:28:20.953Z,25.6
2018-08-17T14:38:20.205Z,26.1
2018-08-17T14:48:19.441Z,26.2
2018-08-17T14:58:18.686Z,26.1
2018-08-17T15:08:17.928Z,25.8
2018-08-17T15:18:17.176Z,25.2
2018-08-17T15:28:16.417Z,25.3
2018-08-17T15:38:15.662Z,25.4
2018-08-17T15:48:14.905Z,25.1
2018-08-17T15:58:14.152Z,24.8
2018-08-17T16:08:13.405Z,24.8
2018-08-17T16:18:12.650Z,24.7
2018-08-17T16:28:11.889Z,24.9
2018-08-17T16:38:11.134Z,25.1
2018-08-17T16:48:10.380Z,25.3
2018-08-17T16:58:09.629Z,25.3
2018-08-17T17:08:08.875Z,25.3
2018-08-17T17:18:08.117Z,25.3
2018-08-17T17:28:07.398Z,25.3
2018-08-17T17:38:06.613Z,25.3
2018-08-17T17:48:05.855Z,25.3
2018-08-17T17:58:05.152Z,25.2
2018-08-17T18:08:04.356Z,25.1
2018-08-17T18:18:03.651Z,25.1
2018-08-17T18:28:02.846Z,25
2018-08-17T18:38:02.091Z,24.9
2018-08-17T18:48:01.344Z,24.9
2018-08-17T18:58:00.586Z,24.9
2018-08-17T19:07:59.836Z,24.9
2018-08-17T19:17:59.080Z,24.9
2018-08-17T19:27:58.331Z,24.9
2018-08-17T19:37:57.575Z,24.8
2018-08-17T19:47:56.822Z,24.8
2018-08-17T19:57:56.068Z,24.8
2018-08-17T20:07:55.316Z,24.7
2018-08-17T20:17:54.560Z,24.6
2018-08-17T20:27:53.807Z,24.5
2018-08-17T20:37:53.055Z,24.4
2018-08-17T20:47:52.298Z,24.3
2018-08-17T20:57:51.545Z,24.3
2018-08-17T21:07:50.786Z,24.1
2018-08-17T21:17:50.031Z,24
2018-08-17T21:27:49.275Z,21.8
2018-08-17T21:37:48.527Z,22.3
2018-08-17T21:47:47.763Z,22.8
2018-08-17T21:57:47.007Z,22.8
2018-08-17T22:07:46.252Z,22.6
2018-08-17T22:17:45.496Z,22.8
2018-08-17T22:27:44.739Z,23.3
2018-08-17T22:37:43.986Z,23.3
2018-08-17T22:47:43.229Z,23.3
2018-08-17T22:57:42.470Z,23.3
2018-08-17T23:07:41.714Z,23.3
2018-08-17T23:17:40.961Z,23.3
2018-08-17T23:27:40.208Z,23.2
2018-08-17T23:37:39.445Z,23.2
2018-08-17T23:47:38.691Z,23.1
2018-08-17T23:57:37.932Z,23.1
